createdAt,value
2019-05-18T00:00:23.301Z,100218.33
2019-05-18T00:01:58.534Z,100223.92
2019-05-18T00:03:33.456Z,100220.72
2019-05-18T00:05:09.337Z,100220.72
2019-05-18T00:06:44.001Z,100222.34
2019-05-18T00:08:19.213Z,100220.78
2019-05-18T00:09:53.847Z,100215.45
2019-05-18T00:11:29.070Z,100215.75
2019-05-18T00:13:03.809Z,100216.02
2019-05-18T00:14:39.979Z,100218.94
2019-05-18T00:16:14.624Z,100210.73
2019-05-18T00:17:49.857Z,100215.78
2019-05-18T00:19:24.510Z,100215.75
2019-05-18T00:21:00.804Z,100215.21
2019-05-18T00:22:35.558Z,100213.64
2019-05-18T00:24:10.786Z,100212.30
2019-05-18T00:25:45.439Z,100215.77
2019-05-18T00:27:20.713Z,100210.98
2019-05-18T00:28:55.458Z,100214.95
2019-05-18T00:30:30.662Z,100214.72
2019-05-18T00:32:05.433Z,100210.20
2019-05-18T00:33:40.644Z,100210.98
2019-05-18T00:35:16.772Z,100213.65
2019-05-18T00:36:52.161Z,100209.16
2019-05-18T00:38:26.801Z,100219.00
2019-05-18T00:40:02.071Z,100222.19
2019-05-18T00:41:36.712Z,100216.05
2019-05-18T00:43:11.979Z,100221.09
2019-05-18T00:44:46.624Z,100216.05
2019-05-18T00:46:21.832Z,100221.91
2019-05-18T00:47:56.480Z,100218.19
2019-05-18T00:49:31.756Z,100216.63
2019-05-18T00:51:06.409Z,100217.69
2019-05-18T00:52:41.635Z,100206.02
2019-05-18T00:54:16.365Z,100208.94
2019-05-18T00:55:51.617Z,100203.36
2019-05-18T00:57:26.285Z,100203.88
2019-05-18T00:59:01.488Z,100194.59
2019-05-18T01:00:36.234Z,100204.40
2019-05-18T01:02:11.803Z,100203.36
2019-05-18T01:03:46.441Z,100198.28
2019-05-18T01:05:21.637Z,100195.34
2019-05-18T01:06:56.380Z,100196.17
2019-05-18T01:08:31.909Z,100191.41
2019-05-18T01:10:07.538Z,100192.46
2019-05-18T01:11:42.754Z,100189.29
2019-05-18T01:13:18.485Z,100192.17
2019-05-18T01:14:53.694Z,100193.27
2019-05-18T01:16:28.340Z,100192.18
2019-05-18T01:18:03.629Z,100195.66
2019-05-18T01:19:38.352Z,100196.18
2019-05-18T01:21:15.904Z,100195.38
2019-05-18T01:22:50.559Z,100201.23
2019-05-18T01:24:25.776Z,100199.36
2019-05-18T01:26:00.429Z,100199.91
2019-05-18T01:27:35.709Z,100196.44
2019-05-18T01:29:10.523Z,100194.87
2019-05-18T01:30:46.259Z,100192.73
2019-05-18T01:32:20.901Z,100194.33
2019-05-18T01:33:56.090Z,100189.02
2019-05-18T01:35:30.743Z,100188.47
2019-05-18T01:37:06.022Z,100197.25
2019-05-18T01:38:40.702Z,100201.50
2019-05-18T01:40:16.856Z,100199.63
2019-05-18T01:41:51.474Z,100196.99
2019-05-18T01:43:26.682Z,100198.84
2019-05-18T01:45:15.901Z,100193.25
2019-05-18T01:46:40.596Z,100189.56
2019-05-18T01:48:15.244Z,100188.48
2019-05-18T01:49:50.468Z,100190.88
2019-05-18T01:51:25.120Z,100188.22
2019-05-18T01:53:00.309Z,100189.55
2019-05-18T01:54:34.947Z,100185.30
2019-05-18T01:56:10.159Z,100190.36
2019-05-18T01:57:44.817Z,100188.50
2019-05-18T01:59:19.997Z,100189.81
2019-05-18T02:00:54.724Z,100185.29
2019-05-18T02:02:30.032Z,100186.65
2019-05-18T02:04:04.754Z,100186.64
2019-05-18T02:05:40.007Z,100191.14
2019-05-18T02:07:14.682Z,100184.23
2019-05-18T02:08:49.993Z,100186.11
2019-05-18T02:10:24.676Z,100185.59
2019-05-18T02:11:59.949Z,100190.36
2019-05-18T02:13:34.588Z,100187.43
2019-05-18T02:15:10.278Z,100188.76
2019-05-18T02:16:44.934Z,100184.50
2019-05-18T02:18:28.670Z,100182.64
2019-05-18T02:19:56.601Z,100184.52
2019-05-18T02:21:31.805Z,100181.33
2019-05-18T02:23:06.509Z,100180.02
2019-05-18T02:24:41.722Z,100178.93
2019-05-18T02:26:16.372Z,100176.27
2019-05-18T02:27:51.592Z,100177.59
2019-05-18T02:29:26.261Z,100176.27
2019-05-18T02:31:01.468Z,100184.22
2019-05-18T02:32:36.110Z,100182.36
2019-05-18T02:34:12.950Z,100181.31
2019-05-18T02:35:47.609Z,100179.73
2019-05-18T02:37:22.826Z,100184.23
2019-05-18T02:38:57.480Z,100177.58
2019-05-18T02:40:32.660Z,100175.75
2019-05-18T02:42:07.380Z,100174.39
2019-05-18T02:43:42.701Z,100174.93
2019-05-18T02:45:17.925Z,100175.45
2019-05-18T02:46:53.175Z,100183.13
2019-05-18T02:48:27.824Z,100181.28
2019-05-18T02:50:03.036Z,100174.38
2019-05-18T02:51:37.743Z,100181.03
2019-05-18T02:53:12.956Z,100174.42
2019-05-18T02:54:47.671Z,100176.80
2019-05-18T02:56:22.862Z,100177.31
2019-05-18T02:57:57.503Z,100186.03
2019-05-18T02:59:32.701Z,100185.27
2019-05-18T03:01:07.453Z,100188.70
2019-05-18T03:02:42.673Z,100183.94
2019-05-18T03:04:17.414Z,100186.57
2019-05-18T03:05:52.600Z,100180.70
2019-05-18T03:07:27.226Z,100182.05
2019-05-18T03:09:02.484Z,100186.02
2019-05-18T03:10:37.208Z,100182.84
2019-05-18T03:12:12.405Z,100179.14
2019-05-18T03:13:47.114Z,100186.28
2019-05-18T03:15:22.427Z,100176.23
2019-05-18T03:16:57.166Z,100177.28
2019-05-18T03:18:32.467Z,100177.28
2019-05-18T03:20:07.795Z,100173.58
2019-05-18T03:21:43.065Z,100179.43
2019-05-18T03:23:18.096Z,100182.59
2019-05-18T03:24:53.316Z,100179.66
2019-05-18T03:26:28.014Z,100187.38
2019-05-18T03:28:03.255Z,100193.20
2019-05-18T03:29:37.910Z,100188.16
2019-05-18T03:31:13.110Z,100186.30
2019-05-18T03:32:47.859Z,100185.52
2019-05-18T03:34:23.128Z,100182.09
2019-05-18T03:35:57.751Z,100188.16
2019-05-18T03:37:32.952Z,100186.02
2019-05-18T03:39:07.710Z,100184.97
2019-05-18T03:40:42.926Z,100188.46
2019-05-18T03:42:17.576Z,100179.44
2019-05-18T03:43:52.873Z,100177.29
2019-05-18T03:45:27.864Z,100176.26
2019-05-18T03:47:03.057Z,100177.84
2019-05-18T03:48:38.685Z,100175.19
2019-05-18T03:50:14.042Z,100177.34
2019-05-18T03:51:48.708Z,100181.05
2019-05-18T03:53:23.894Z,100181.59
2019-05-18T03:54:58.649Z,100184.75
2019-05-18T03:56:33.846Z,100185.81
2019-05-18T03:58:08.504Z,100181.58
2019-05-18T03:59:43.805Z,100183.45
2019-05-18T04:01:18.493Z,100186.37
2019-05-18T04:02:53.727Z,100188.50
2019-05-18T04:04:28.385Z,100184.78
2019-05-18T04:06:03.726Z,100186.88
2019-05-18T04:07:38.447Z,100187.16
2019-05-18T04:09:13.692Z,100185.55
2019-05-18T04:10:48.346Z,100180.24
2019-05-18T04:12:23.626Z,100186.87
2019-05-18T04:13:58.371Z,100190.02
2019-05-18T04:15:33.637Z,100194.81
2019-05-18T04:17:08.352Z,100185.23
2019-05-18T04:18:43.553Z,100190.75
2019-05-18T04:20:18.424Z,100188.08
2019-05-18T04:21:54.603Z,100184.61
2019-05-18T04:23:29.255Z,100191.45
2019-05-18T04:25:04.561Z,100188.02
2019-05-18T04:26:39.281Z,100191.73
2019-05-18T04:28:14.500Z,100183.48
2019-05-18T04:29:49.159Z,100183.83
2019-05-18T04:31:24.400Z,100176.95
2019-05-18T04:32:59.117Z,100172.22
2019-05-18T04:34:34.324Z,100180.09
2019-05-18T04:36:09.100Z,100183.23
2019-05-18T04:37:44.336Z,100178.83
2019-05-18T04:39:19.057Z,100184.50
2019-05-18T04:40:54.276Z,100183.76
2019-05-18T04:42:28.944Z,100183.76
2019-05-18T04:44:04.258Z,100194.26
2019-05-18T04:45:38.926Z,100192.72
2019-05-18T04:47:14.162Z,100184.76
2019-05-18T04:48:48.837Z,100197.16
2019-05-18T04:50:24.061Z,100199.25
2019-05-18T04:51:58.733Z,100204.88
2019-05-18T04:53:33.941Z,100204.88
2019-05-18T04:55:08.761Z,100204.91
2019-05-18T04:56:44.168Z,100203.14
2019-05-18T04:58:18.805Z,100205.12
2019-05-18T04:59:54.021Z,100210.23
2019-05-18T05:01:28.779Z,100210.73
2019-05-18T05:03:04.043Z,100210.49
2019-05-18T05:04:38.686Z,100214.45
2019-05-18T05:06:14.903Z,100203.14
2019-05-18T05:07:49.602Z,100214.28
2019-05-18T05:09:24.907Z,100205.48
2019-05-18T05:10:59.566Z,100208.01
2019-05-18T05:12:34.794Z,100208.67
2019-05-18T05:14:09.650Z,100210.59
2019-05-18T05:15:44.889Z,100210.31
2019-05-18T05:17:19.599Z,100203.19
2019-05-18T05:18:54.815Z,100211.44
2019-05-18T05:20:30.499Z,100203.64
2019-05-18T05:22:05.779Z,100201.30
2019-05-18T05:23:40.451Z,100200.78
2019-05-18T05:25:15.733Z,100200.73
2019-05-18T05:26:50.412Z,100191.30
2019-05-18T05:28:25.659Z,100196.30
2019-05-18T05:30:00.272Z,100196.15
2019-05-18T05:31:35.533Z,100196.33
2019-05-18T05:33:10.201Z,100190.58
2019-05-18T05:34:45.442Z,100193.19
2019-05-18T05:36:20.132Z,100187.91
2019-05-18T05:37:55.381Z,100192.13
2019-05-18T05:39:30.051Z,100187.11
2019-05-18T05:41:05.414Z,100194.22
2019-05-18T05:42:40.047Z,100200.95
2019-05-18T05:44:15.373Z,100195.05
2019-05-18T05:45:50.124Z,100200.08
2019-05-18T05:47:25.376Z,100205.98
2019-05-18T05:49:00.140Z,100210.09
2019-05-18T05:50:36.700Z,100220.02
2019-05-18T05:52:11.645Z,100220.83
2019-05-18T05:53:46.956Z,100216.07
2019-05-18T05:55:21.677Z,100216.70
2019-05-18T05:56:56.978Z,100207.59
2019-05-18T05:58:31.618Z,100204.35
2019-05-18T06:00:07.103Z,100203.28
2019-05-18T06:01:41.747Z,100199.80
2019-05-18T06:03:16.962Z,100206.09
2019-05-18T06:04:51.606Z,100207.58
2019-05-18T06:06:26.833Z,100206.95
2019-05-18T06:08:01.493Z,100213.36
2019-05-18T06:09:36.713Z,100212.84
2019-05-18T06:11:11.377Z,100214.52
2019-05-18T06:12:46.605Z,100210.66
2019-05-18T06:14:21.257Z,100206.52
2019-05-18T06:15:56.470Z,100212.45
2019-05-18T06:17:31.138Z,100210.92
2019-05-18T06:19:08.003Z,100207.88
2019-05-18T06:20:51.172Z,100205.50
2019-05-18T06:22:19.656Z,100213.11
2019-05-18T06:23:54.944Z,100208.08
2019-05-18T06:25:34.194Z,100213.55
2019-05-18T06:27:06.498Z,100211.95
2019-05-18T06:28:41.740Z,100214.34
2019-05-18T06:30:16.613Z,100220.12
2019-05-18T06:31:51.948Z,100220.37
2019-05-18T06:33:26.596Z,100218.20
2019-05-18T06:35:01.807Z,100218.06
2019-05-18T06:36:37.662Z,100215.28
2019-05-18T06:38:12.892Z,100225.39
2019-05-18T06:39:47.557Z,100218.22
2019-05-18T06:41:22.765Z,100218.84
2019-05-18T06:42:57.434Z,100210.78
2019-05-18T06:44:32.669Z,100222.53
2019-05-18T06:46:07.341Z,100215.57
2019-05-18T06:47:42.554Z,100214.44
2019-05-18T06:49:17.202Z,100219.25
2019-05-18T06:51:06.369Z,100220.06
2019-05-18T06:52:28.824Z,100219.44
2019-05-18T06:54:04.074Z,100229.25
2019-05-18T06:55:39.128Z,100223.69
2019-05-18T06:57:14.717Z,100227.77
2019-05-18T06:58:50.154Z,100216.48
2019-05-18T07:00:25.552Z,100219.77
2019-05-18T07:02:06.474Z,100222.88
2019-05-18T07:03:44.956Z,100222.62
2019-05-18T07:05:18.131Z,100225.62
2019-05-18T07:06:53.468Z,100230.18
2019-05-18T07:08:29.188Z,100219.75
2019-05-18T07:10:04.582Z,100223.16
2019-05-18T07:11:39.239Z,100223.30
2019-05-18T07:13:14.490Z,100222.69
2019-05-18T07:14:49.136Z,100221.99
2019-05-18T07:16:24.359Z,100223.69
2019-05-18T07:17:59.091Z,100218.52
2019-05-18T07:19:34.311Z,100223.70
2019-05-18T07:21:21.291Z,100226.66
2019-05-18T07:22:46.453Z,100219.85
2019-05-18T07:24:21.241Z,100214.27
2019-05-18T07:25:56.447Z,100221.14
2019-05-18T07:27:31.209Z,100212.38
2019-05-18T07:29:06.541Z,100211.93
2019-05-18T07:30:41.169Z,100213.39
2019-05-18T07:32:16.436Z,100207.27
2019-05-18T07:33:51.107Z,100213.23
2019-05-18T07:35:26.494Z,100205.58
2019-05-18T07:37:01.162Z,100210.72
2019-05-18T07:38:36.405Z,100203.33
2019-05-18T07:40:11.524Z,100202.42
2019-05-18T07:41:47.344Z,100215.00
2019-05-18T07:43:22.177Z,100207.25
2019-05-18T07:44:57.400Z,100206.17
2019-05-18T07:46:32.048Z,100204.95
2019-05-18T07:48:07.262Z,100204.95
2019-05-18T07:49:41.933Z,100197.11
2019-05-18T07:51:18.124Z,100203.41
2019-05-18T07:52:53.889Z,100204.44
2019-05-18T07:54:29.376Z,100207.63
2019-05-18T07:56:04.103Z,100202.59
2019-05-18T07:57:39.361Z,100208.39
2019-05-18T07:59:14.071Z,100199.75
2019-05-18T08:00:49.289Z,100200.33
2019-05-18T08:02:23.956Z,100195.15
2019-05-18T08:04:01.142Z,100206.87
2019-05-18T08:05:35.812Z,100206.97
2019-05-18T08:07:11.026Z,100201.08
2019-05-18T08:08:45.677Z,100200.57
2019-05-18T08:10:47.325Z,100209.05
2019-05-18T08:12:22.583Z,100211.84
2019-05-18T08:13:57.230Z,100205.01
2019-05-18T08:15:32.446Z,100202.73
2019-05-18T08:17:07.115Z,100199.88
2019-05-18T08:18:42.316Z,100197.63
2019-05-18T08:20:17.044Z,100195.73
2019-05-18T08:21:53.715Z,100194.20
2019-05-18T08:23:28.520Z,100187.03
2019-05-18T08:25:03.814Z,100191.83
2019-05-18T08:26:38.468Z,100187.13
2019-05-18T08:28:13.686Z,100191.27
2019-05-18T08:29:48.375Z,100183.59
2019-05-18T08:31:23.573Z,100188.20
2019-05-18T08:32:59.336Z,100178.99
2019-05-18T08:34:34.551Z,100180.92
2019-05-18T08:36:09.503Z,100180.00
2019-05-18T08:37:44.708Z,100188.47
2019-05-18T08:39:19.353Z,100196.06
2019-05-18T08:40:54.631Z,100190.78
2019-05-18T08:42:29.382Z,100185.50
2019-05-18T08:44:04.675Z,100192.84
2019-05-18T08:45:39.340Z,100191.19
2019-05-18T08:47:14.567Z,100182.25
2019-05-18T08:48:49.213Z,100176.94
2019-05-18T08:50:24.397Z,100180.15
2019-05-18T08:52:07.792Z,100177.57
2019-05-18T08:53:36.227Z,100189.64
2019-05-18T08:55:11.136Z,100185.16
2019-05-18T08:56:46.359Z,100178.12
2019-05-18T08:58:20.991Z,100175.66
2019-05-18T08:59:56.183Z,100175.13
2019-05-18T09:01:30.831Z,100183.93
2019-05-18T09:03:06.021Z,100180.61
2019-05-18T09:04:40.640Z,100175.41
2019-05-18T09:06:15.846Z,100185.95
2019-05-18T09:07:50.509Z,100181.23
2019-05-18T09:09:25.808Z,100176.27
2019-05-18T09:11:00.563Z,100186.72
2019-05-18T09:12:35.892Z,100188.02
2019-05-18T09:14:10.543Z,100181.69
2019-05-18T09:15:45.999Z,100182.48
2019-05-18T09:17:20.655Z,100184.91
2019-05-18T09:18:55.861Z,100188.46
2019-05-18T09:20:30.529Z,100181.50
2019-05-18T09:22:05.880Z,100173.28
2019-05-18T09:23:40.542Z,100177.31
2019-05-18T09:25:16.014Z,100172.45
2019-05-18T09:26:50.661Z,100173.62
2019-05-18T09:28:25.968Z,100181.42
2019-05-18T09:30:00.600Z,100174.48
2019-05-18T09:31:35.807Z,100178.81
2019-05-18T09:33:10.553Z,100176.07
2019-05-18T09:34:45.816Z,100178.66
2019-05-18T09:36:20.459Z,100181.50
2019-05-18T09:37:55.669Z,100173.55
2019-05-18T09:39:30.375Z,100172.87
2019-05-18T09:41:05.662Z,100171.66
2019-05-18T09:42:40.373Z,100176.41
2019-05-18T09:44:15.604Z,100168.59
2019-05-18T09:45:50.245Z,100173.90
2019-05-18T09:47:25.444Z,100165.83
2019-05-18T09:49:00.121Z,100170.80
2019-05-18T09:50:35.412Z,100167.30
2019-05-18T09:52:10.125Z,100175.86
2019-05-18T09:53:51.586Z,100168.42
2019-05-18T09:55:21.800Z,100163.05
2019-05-18T09:56:57.007Z,100164.38
2019-05-18T09:58:31.741Z,100160.85
2019-05-18T10:00:09.017Z,100163.16
2019-05-18T10:01:43.669Z,100170.83
2019-05-18T10:03:18.909Z,100160.73
2019-05-18T10:04:53.522Z,100166.19
2019-05-18T10:06:31.364Z,100151.52
2019-05-18T10:08:05.098Z,100154.09
2019-05-18T10:09:40.290Z,100147.57
2019-05-18T10:11:15.120Z,100162.97
2019-05-18T10:12:50.386Z,100155.91
2019-05-18T10:14:25.018Z,100143.79
2019-05-18T10:16:00.287Z,100142.70
2019-05-18T10:17:35.011Z,100155.31
2019-05-18T10:19:11.341Z,100159.37
2019-05-18T10:20:46.007Z,100140.89
2019-05-18T10:22:21.261Z,100147.59
2019-05-18T10:23:55.897Z,100143.17
2019-05-18T10:25:31.116Z,100144.33
2019-05-18T10:27:05.780Z,100139.53
2019-05-18T10:28:40.989Z,100143.13
2019-05-18T10:30:15.930Z,100141.67
2019-05-18T10:31:51.231Z,100140.70
2019-05-18T10:33:25.890Z,100137.34
2019-05-18T10:35:01.112Z,100138.69
2019-05-18T10:36:36.057Z,100132.75
2019-05-18T10:38:11.353Z,100133.35
2019-05-18T10:39:45.999Z,100147.47
2019-05-18T10:41:21.259Z,100135.53
2019-05-18T10:42:55.880Z,100137.03
2019-05-18T10:44:31.083Z,100135.53
2019-05-18T10:46:05.784Z,100142.02
2019-05-18T10:47:41.021Z,100143.05
2019-05-18T10:49:15.733Z,100134.17
2019-05-18T10:50:50.962Z,100123.36
2019-05-18T10:52:25.617Z,100119.20
2019-05-18T10:54:00.796Z,100124.53
2019-05-18T10:55:35.545Z,100121.33
2019-05-18T10:57:10.846Z,100125.85
2019-05-18T10:58:45.516Z,100117.80
2019-05-18T11:00:21.127Z,100121.13
2019-05-18T11:01:55.849Z,100121.65
2019-05-18T11:03:31.033Z,100120.33
2019-05-18T11:05:05.944Z,100109.25
2019-05-18T11:06:41.141Z,100110.30
2019-05-18T11:08:15.785Z,100113.45
2019-05-18T11:09:50.993Z,100112.16
2019-05-18T11:12:06.183Z,100114.46
2019-05-18T11:13:41.384Z,100114.78
2019-05-18T11:15:16.512Z,100104.58
2019-05-18T11:16:51.747Z,100121.75
2019-05-18T11:18:26.394Z,100115.27
2019-05-18T11:20:01.582Z,100109.60
2019-05-18T11:21:36.245Z,100111.06
2019-05-18T11:23:11.523Z,100116.28
2019-05-18T11:24:46.219Z,100111.87
2019-05-18T11:26:21.425Z,100109.60
2019-05-18T11:27:56.070Z,100107.52
2019-05-18T11:29:31.312Z,100113.62
2019-05-18T11:31:06.012Z,100114.95
2019-05-18T11:32:41.305Z,100116.51
2019-05-18T11:34:15.948Z,100114.74
2019-05-18T11:35:52.205Z,100109.04
2019-05-18T11:37:26.861Z,100108.86
2019-05-18T11:39:02.086Z,100110.11
2019-05-18T11:40:37.803Z,100108.48
2019-05-18T11:42:13.076Z,100101.75
2019-05-18T11:43:47.721Z,100125.63
2019-05-18T11:45:23.411Z,100108.14
2019-05-18T11:46:58.063Z,100108.25
2019-05-18T11:48:33.265Z,100102.61
2019-05-18T11:50:08.511Z,100102.11
2019-05-18T11:51:43.788Z,100101.75
2019-05-18T11:53:18.527Z,100101.31
2019-05-18T11:54:53.788Z,100100.67
2019-05-18T11:56:28.416Z,100094.41
2019-05-18T11:58:03.609Z,100096.62
2019-05-18T11:59:38.255Z,100098.66
2019-05-18T12:01:14.623Z,100091.06
2019-05-18T12:02:50.329Z,100090.63
2019-05-18T12:04:25.520Z,100099.55
2019-05-18T12:06:00.210Z,100099.49
2019-05-18T12:07:35.387Z,100097.85
2019-05-18T12:09:10.049Z,100095.31
2019-05-18T12:10:45.341Z,100103.34
2019-05-18T12:12:19.985Z,100097.86
2019-05-18T12:13:55.173Z,100098.44
2019-05-18T12:15:29.907Z,100094.70
2019-05-18T12:17:05.123Z,100091.20
2019-05-18T12:18:39.754Z,100095.15
2019-05-18T12:20:15.600Z,100101.34
2019-05-18T12:21:50.300Z,100101.02
2019-05-18T12:23:25.538Z,100092.39
2019-05-18T12:25:01.265Z,100096.81
2019-05-18T12:26:36.542Z,100096.02
2019-05-18T12:28:11.206Z,100098.91
2019-05-18T12:29:46.394Z,100090.52
2019-05-18T12:31:21.037Z,100085.96
2019-05-18T12:32:56.250Z,100089.42
2019-05-18T12:34:30.924Z,100086.77
2019-05-18T12:36:07.402Z,100085.89
2019-05-18T12:37:42.381Z,100085.22
2019-05-18T12:39:17.702Z,100084.52
2019-05-18T12:40:52.345Z,100093.11
2019-05-18T12:42:27.663Z,100085.69
2019-05-18T12:44:02.328Z,100084.14
2019-05-18T12:45:37.578Z,100085.95
2019-05-18T12:47:14.308Z,100091.00
2019-05-18T12:48:49.189Z,100086.94
2019-05-18T12:50:24.541Z,100086.11
2019-05-18T12:51:59.787Z,100080.98
2019-05-18T12:53:34.462Z,100078.77
2019-05-18T12:55:10.303Z,100081.83
2019-05-18T12:56:44.951Z,100081.55
2019-05-18T12:58:20.162Z,100071.19
2019-05-18T12:59:54.847Z,100086.15
2019-05-18T13:01:30.131Z,100077.73
2019-05-18T13:03:04.834Z,100080.08
2019-05-18T13:04:42.007Z,100080.17
2019-05-18T13:06:17.207Z,100074.66
2019-05-18T13:07:52.488Z,100077.09
2019-05-18T13:09:27.170Z,100081.47
2019-05-18T13:11:02.430Z,100072.13
2019-05-18T13:12:37.144Z,100072.62
2019-05-18T13:14:12.358Z,100072.77
2019-05-18T13:15:47.023Z,100068.83
2019-05-18T13:17:22.244Z,100076.78
2019-05-18T13:18:56.894Z,100065.62
2019-05-18T13:20:32.179Z,100069.52
2019-05-18T13:22:06.958Z,100068.94
2019-05-18T13:23:42.232Z,100070.93
2019-05-18T13:25:17.060Z,100071.38
2019-05-18T13:26:52.284Z,100072.23
2019-05-18T13:28:27.093Z,100057.28
2019-05-18T13:30:02.443Z,100058.45
2019-05-18T13:31:37.183Z,100058.13
2019-05-18T13:33:12.381Z,100067.37
2019-05-18T13:34:47.012Z,100063.83
2019-05-18T13:36:22.220Z,100069.19
2019-05-18T13:37:56.969Z,100071.55
2019-05-18T13:39:32.225Z,100066.30
2019-05-18T13:41:06.922Z,100077.22
2019-05-18T13:42:42.152Z,100071.93
2019-05-18T13:44:16.785Z,100063.68
2019-05-18T13:45:52.029Z,100073.53
2019-05-18T13:47:26.699Z,100063.28
2019-05-18T13:49:01.981Z,100065.50
2019-05-18T13:50:36.623Z,100060.95
2019-05-18T13:52:11.850Z,100063.95
2019-05-18T13:53:46.464Z,100058.75
2019-05-18T13:55:21.778Z,100062.19
2019-05-18T13:56:56.443Z,100059.62
2019-05-18T13:58:32.625Z,100061.59
2019-05-18T14:00:08.036Z,100066.48
2019-05-18T14:01:43.655Z,100060.80
2019-05-18T14:03:18.372Z,100066.15
2019-05-18T14:04:53.558Z,100058.36
2019-05-18T14:06:28.286Z,100060.75
2019-05-18T14:08:03.535Z,100053.31
2019-05-18T14:09:38.235Z,100055.41
2019-05-18T14:11:13.511Z,100062.02
2019-05-18T14:12:48.281Z,100058.88
2019-05-18T14:14:38.927Z,100064.86
2019-05-18T14:16:13.675Z,100065.43
2019-05-18T14:17:48.931Z,100063.78
2019-05-18T14:19:23.689Z,100061.56
2019-05-18T14:20:58.865Z,100062.62
2019-05-18T14:22:33.508Z,100069.16
2019-05-18T14:24:08.704Z,100059.09
2019-05-18T14:25:46.039Z,100063.95
2019-05-18T14:27:20.265Z,100059.78
2019-05-18T14:28:54.918Z,100066.88
2019-05-18T14:30:30.133Z,100074.73
2019-05-18T14:32:04.952Z,100068.75
2019-05-18T14:33:40.152Z,100068.46
2019-05-18T14:35:14.970Z,100064.34
2019-05-18T14:36:50.178Z,100067.00
2019-05-18T14:38:25.905Z,100064.27
2019-05-18T14:40:01.143Z,100071.73
2019-05-18T14:41:35.847Z,100064.45
2019-05-18T14:43:11.070Z,100064.74
2019-05-18T14:44:46.679Z,100062.38
2019-05-18T14:46:21.985Z,100061.28
2019-05-18T14:47:56.604Z,100062.19
2019-05-18T14:49:31.807Z,100061.11
2019-05-18T14:51:06.479Z,100065.67
2019-05-18T14:52:41.702Z,100049.36
2019-05-18T14:54:16.401Z,100054.55
2019-05-18T14:55:51.629Z,100054.67
2019-05-18T14:57:26.411Z,100057.08
2019-05-18T14:59:01.613Z,100059.25
2019-05-18T15:00:36.350Z,100062.12
2019-05-18T15:02:11.555Z,100070.66
2019-05-18T15:03:46.215Z,100055.58
2019-05-18T15:05:23.089Z,100057.08
2019-05-18T15:06:57.778Z,100060.19
2019-05-18T15:08:33.042Z,100056.95
2019-05-18T15:10:08.206Z,100053.28
2019-05-18T15:11:43.494Z,100055.72
2019-05-18T15:13:18.243Z,100044.72
2019-05-18T15:14:53.488Z,100055.48
2019-05-18T15:16:28.206Z,100050.67
2019-05-18T15:18:03.461Z,100048.38
2019-05-18T15:19:38.162Z,100051.11
2019-05-18T15:21:13.404Z,100048.41
2019-05-18T15:22:48.122Z,100050.89
2019-05-18T15:24:23.399Z,100054.14
2019-05-18T15:25:58.071Z,100050.15
2019-05-18T15:27:33.294Z,100043.61
2019-05-18T15:29:08.014Z,100044.73
2019-05-18T15:30:43.213Z,100045.09
2019-05-18T15:32:17.920Z,100044.97
2019-05-18T15:33:53.128Z,100041.83
2019-05-18T15:35:27.865Z,100046.81
2019-05-18T15:37:03.206Z,100047.30
2019-05-18T15:38:37.942Z,100050.81
2019-05-18T15:40:13.374Z,100049.76
2019-05-18T15:41:48.099Z,100049.61
2019-05-18T15:43:23.292Z,100037.19
2019-05-18T15:44:58.040Z,100041.94
2019-05-18T15:46:33.293Z,100040.72
2019-05-18T15:48:08.013Z,100043.36
2019-05-18T15:49:43.223Z,100040.05
2019-05-18T15:51:18.244Z,100046.22
2019-05-18T15:52:53.929Z,100045.88
2019-05-18T15:54:28.664Z,100043.08
2019-05-18T15:56:06.249Z,100039.88
2019-05-18T15:57:40.325Z,100043.48
2019-05-18T15:59:15.614Z,100043.16
2019-05-18T16:00:50.262Z,100041.19
2019-05-18T16:02:26.465Z,100034.55
2019-05-18T16:04:01.107Z,100042.45
2019-05-18T16:05:36.338Z,100036.62
2019-05-18T16:07:11.066Z,100041.48
2019-05-18T16:08:47.338Z,100035.98
2019-05-18T16:10:22.052Z,100045.67
2019-05-18T16:11:57.254Z,100045.16
2019-05-18T16:13:32.269Z,100040.01
2019-05-18T16:15:08.080Z,100035.76
2019-05-18T16:16:42.739Z,100045.97
2019-05-18T16:18:19.048Z,100042.84
2019-05-18T16:19:53.789Z,100041.17
2019-05-18T16:21:29.991Z,100044.02
2019-05-18T16:23:04.925Z,100037.97
2019-05-18T16:24:40.216Z,100039.59
2019-05-18T16:26:21.452Z,100034.03
2019-05-18T16:27:51.857Z,100034.14
2019-05-18T16:29:26.552Z,100039.55
2019-05-18T16:31:01.815Z,100038.76
2019-05-18T16:32:36.490Z,100036.55
2019-05-18T16:34:11.726Z,100028.42
2019-05-18T16:35:46.394Z,100024.66
2019-05-18T16:37:22.788Z,100026.70
2019-05-18T16:38:57.500Z,100024.83
2019-05-18T16:40:32.708Z,100030.49
2019-05-18T16:42:07.624Z,100016.53
2019-05-18T16:43:42.911Z,100021.73
2019-05-18T16:45:17.932Z,100022.51
2019-05-18T16:46:53.152Z,100027.66
2019-05-18T16:48:27.792Z,100025.72
2019-05-18T16:50:03.020Z,100029.90
2019-05-18T16:51:37.739Z,100027.41
2019-05-18T16:53:13.323Z,100030.91
2019-05-18T16:54:47.957Z,100028.58
2019-05-18T16:56:34.582Z,100023.37
2019-05-18T16:57:59.518Z,100032.28
2019-05-18T16:59:34.743Z,100027.41
2019-05-18T17:01:09.449Z,100028.77
2019-05-18T17:02:44.775Z,100029.72
2019-05-18T17:04:19.479Z,100030.77
2019-05-18T17:05:54.663Z,100030.77
2019-05-18T17:07:29.406Z,100027.96
2019-05-18T17:09:05.484Z,100025.44
2019-05-18T17:10:40.138Z,100029.69
2019-05-18T17:12:15.358Z,100027.09
2019-05-18T17:13:50.049Z,100024.66
2019-05-18T17:15:25.327Z,100026.41
2019-05-18T17:17:00.025Z,100021.05
2019-05-18T17:18:35.245Z,100017.55
2019-05-18T17:20:10.536Z,100019.58
2019-05-18T17:21:45.855Z,100016.20
2019-05-18T17:23:20.521Z,100015.90
2019-05-18T17:24:56.694Z,100022.73
2019-05-18T17:26:31.350Z,100026.67
2019-05-18T17:28:06.610Z,100026.16
2019-05-18T17:29:41.342Z,100022.77
2019-05-18T17:31:16.532Z,100021.23
2019-05-18T17:32:51.182Z,100026.82
2019-05-18T17:34:26.416Z,100024.20
2019-05-18T17:36:01.055Z,100025.89
2019-05-18T17:37:36.240Z,100035.19
2019-05-18T17:39:10.967Z,100028.91
2019-05-18T17:40:46.206Z,100040.15
2019-05-18T17:42:20.835Z,100032.48
2019-05-18T17:43:56.143Z,100031.50
2019-05-18T17:45:31.013Z,100023.45
2019-05-18T17:47:06.690Z,100030.22
2019-05-18T17:48:41.350Z,100030.10
2019-05-18T17:50:16.721Z,100025.31
2019-05-18T17:51:51.553Z,100037.17
2019-05-18T17:53:26.818Z,100027.84
2019-05-18T17:55:01.727Z,100039.25
2019-05-18T17:56:36.935Z,100035.91
2019-05-18T17:58:11.589Z,100038.06
2019-05-18T17:59:49.518Z,100037.47
2019-05-18T18:01:23.271Z,100036.41
2019-05-18T18:02:58.499Z,100032.38
2019-05-18T18:04:33.149Z,100035.81
2019-05-18T18:06:08.542Z,100038.88